createdAt,value
2023-01-10T00:00:29.196Z,100.00
2023-01-10T00:02:55.951Z,100.00
2023-01-10T00:05:22.416Z,100.00
2023-01-10T00:07:48.967Z,100.00
2023-01-10T00:10:15.653Z,100.00
2023-01-10T00:13:00.623Z,100.00
2023-01-10T00:15:27.107Z,100.00
2023-01-10T00:17:53.606Z,100.00
2023-01-10T00:20:20.307Z,100.00
2023-01-10T00:22:46.972Z,100.00
2023-01-10T00:25:13.542Z,100.00
2023-01-10T00:27:40.364Z,100.00
2023-01-10T00:30:14.173Z,100.00
2023-01-10T00:32:42.823Z,100.00
2023-01-10T00:35:11.119Z,100.00
2023-01-10T00:37:39.254Z,100.00
2023-01-10T00:40:10.713Z,100.00
2023-01-10T00:42:56.295Z,100.00
2023-01-10T00:45:24.961Z,100.00
2023-01-10T00:47:52.475Z,100.00
2023-01-10T00:50:19.059Z,100.00
2023-01-10T00:52:45.651Z,100.00
2023-01-10T00:55:12.170Z,100.00
2023-01-10T00:57:38.672Z,100.00
2023-01-10T01:00:09.098Z,100.00
2023-01-10T01:02:36.204Z,100.00
2023-01-10T01:05:02.865Z,100.00
2023-01-10T01:07:29.266Z,100.00
2023-01-10T01:10:14.372Z,100.00
2023-01-10T01:12:40.827Z,100.00
2023-01-10T01:15:07.920Z,100.00
2023-01-10T01:17:34.399Z,100.00
2023-01-10T01:20:00.857Z,100.00
2023-01-10T01:22:27.302Z,100.00
2023-01-10T01:24:53.767Z,100.00
2023-01-10T01:27:20.933Z,100.00
2023-01-10T01:29:47.396Z,100.00
2023-01-10T01:32:13.851Z,100.00
2023-01-10T01:34:41.080Z,100.00
2023-01-10T01:37:07.603Z,100.00
2023-01-10T01:39:34.073Z,100.00
2023-01-10T01:42:00.602Z,100.00
2023-01-10T01:44:36.486Z,100.00
2023-01-10T01:47:07.535Z,100.00
2023-01-10T01:49:38.223Z,100.00
2023-01-10T01:52:25.811Z,100.00
2023-01-10T01:54:56.399Z,100.00
2023-01-10T01:57:27.964Z,100.00
2023-01-10T01:59:55.788Z,100.00
2023-01-10T02:02:26.753Z,100.00
2023-01-10T02:04:55.606Z,100.00
2023-01-10T02:07:24.087Z,100.00
2023-01-10T02:09:56.534Z,100.00
2023-01-10T02:12:24.881Z,100.00
2023-01-10T02:14:52.829Z,100.00
2023-01-10T02:17:19.319Z,100.00
2023-01-10T02:20:05.984Z,100.00
2023-01-10T02:22:57.549Z,100.00
2023-01-10T02:25:44.214Z,100.00
2023-01-10T02:28:22.840Z,100.00
2023-01-10T02:31:37.102Z,100.00
2023-01-10T02:34:46.289Z,100.00
2023-01-10T02:37:18.679Z,100.00
2023-01-10T02:40:07.847Z,100.00
2023-01-10T02:42:47.051Z,100.00
2023-01-10T02:45:22.334Z,100.00
2023-01-10T02:47:48.847Z,100.00
2023-01-10T02:50:36.200Z,100.00
2023-01-10T02:53:41.635Z,100.00
2023-01-10T02:56:36.392Z,100.00
2023-01-10T02:59:34.972Z,100.00
2023-01-10T03:02:15.610Z,100.00
2023-01-10T03:04:55.728Z,100.00
2023-01-10T03:07:27.924Z,100.00
2023-01-10T03:10:03.636Z,100.00
2023-01-10T03:12:45.836Z,100.00
2023-01-10T03:15:16.336Z,100.00
2023-01-10T03:17:48.057Z,100.00
2023-01-10T03:20:15.083Z,100.00
2023-01-10T03:22:43.234Z,100.00
2023-01-10T03:25:13.663Z,100.00
2023-01-10T03:27:54.439Z,100.00
2023-01-10T03:30:39.379Z,100.00
2023-01-10T03:33:06.247Z,100.00
2023-01-10T03:35:58.827Z,100.00
2023-01-10T03:38:36.202Z,100.00
2023-01-10T03:41:16.889Z,100.00
2023-01-10T03:44:37.735Z,100.00
2023-01-10T03:47:29.796Z,100.00
2023-01-10T03:50:05.733Z,100.00
2023-01-10T03:52:34.909Z,100.00
2023-01-10T03:55:02.616Z,100.00
2023-01-10T03:57:29.272Z,100.00
2023-01-10T03:59:58.207Z,100.00
2023-01-10T04:02:30.648Z,100.00
2023-01-10T04:04:58.943Z,100.00
2023-01-10T04:07:26.570Z,100.00
2023-01-10T04:09:53.049Z,100.00
2023-01-10T04:12:19.510Z,100.00
2023-01-10T04:14:47.122Z,100.00
2023-01-10T04:17:15.251Z,100.00
2023-01-10T04:19:42.048Z,100.00
2023-01-10T04:22:09.506Z,100.00
2023-01-10T04:24:36.003Z,100.00
2023-01-10T04:27:03.068Z,100.00
2023-01-10T04:29:29.527Z,100.00
2023-01-10T04:31:56.221Z,100.00
2023-01-10T04:34:22.859Z,100.00
2023-01-10T04:36:50.686Z,100.00
2023-01-10T04:39:17.552Z,100.00
2023-01-10T04:41:43.957Z,100.00
2023-01-10T04:44:10.403Z,100.00
2023-01-10T04:46:36.924Z,100.00
2023-01-10T04:49:03.448Z,100.00
2023-01-10T04:51:29.924Z,100.00
2023-01-10T04:53:56.415Z,100.00
2023-01-10T04:56:23.675Z,100.00
2023-01-10T04:58:53.011Z,100.00
2023-01-10T05:01:22.775Z,100.00
2023-01-10T05:03:54.173Z,100.00
2023-01-10T05:06:22.044Z,100.00
2023-01-10T05:08:48.493Z,100.00
2023-01-10T05:11:14.972Z,100.00
2023-01-10T05:13:41.796Z,100.00
2023-01-10T05:16:08.650Z,100.00
2023-01-10T05:18:35.201Z,100.00
2023-01-10T05:21:03.183Z,100.00
2023-01-10T05:23:29.839Z,100.00
2023-01-10T05:25:56.782Z,100.00
2023-01-10T05:28:24.015Z,100.00
2023-01-10T05:30:51.094Z,100.00
2023-01-10T05:33:17.515Z,100.00
2023-01-10T05:35:43.987Z,100.00
2023-01-10T05:38:10.468Z,100.00
2023-01-10T05:40:36.900Z,100.00
2023-01-10T05:43:03.445Z,100.00
2023-01-10T05:45:30.388Z,100.00
2023-01-10T05:47:57.138Z,100.00
2023-01-10T05:50:23.626Z,100.00
2023-01-10T05:52:50.157Z,100.00
2023-01-10T05:55:16.695Z,100.00
2023-01-10T05:57:43.141Z,100.00
2023-01-10T06:00:10.350Z,100.00
2023-01-10T06:02:40.204Z,100.00
2023-01-10T06:05:07.155Z,100.00
2023-01-10T06:07:33.576Z,100.00
2023-01-10T06:10:00.025Z,100.00
2023-01-10T06:12:26.602Z,100.00
2023-01-10T06:14:53.112Z,100.00
2023-01-10T06:17:19.536Z,100.00
2023-01-10T06:19:46.038Z,100.00
2023-01-10T06:22:12.501Z,100.00
2023-01-10T06:24:39.050Z,100.00
2023-01-10T06:27:05.950Z,100.00
2023-01-10T06:29:32.503Z,100.00
2023-01-10T06:31:58.982Z,100.00
2023-01-10T06:34:25.467Z,100.00
2023-01-10T06:36:51.930Z,100.00
2023-01-10T06:39:18.389Z,100.00
2023-01-10T06:41:44.846Z,100.00
2023-01-10T06:44:11.315Z,100.00
2023-01-10T06:46:37.766Z,100.00
2023-01-10T06:49:04.195Z,100.00
2023-01-10T06:51:30.673Z,100.00
2023-01-10T06:53:57.110Z,100.00
2023-01-10T06:56:23.598Z,100.00
2023-01-10T06:58:50.427Z,100.00
2023-01-10T07:01:20.131Z,100.00
2023-01-10T07:03:47.461Z,100.00
2023-01-10T07:06:14.835Z,100.00
2023-01-10T07:08:45.604Z,100.00
2023-01-10T07:11:15.217Z,100.00
2023-01-10T07:13:41.778Z,100.00
2023-01-10T07:16:11.355Z,100.00
2023-01-10T07:18:39.862Z,100.00
2023-01-10T07:21:06.680Z,100.00
2023-01-10T07:23:33.276Z,100.00
2023-01-10T07:26:04.938Z,100.00
2023-01-10T07:28:34.250Z,100.00
2023-01-10T07:31:05.733Z,100.00
2023-01-10T07:33:44.931Z,100.00
2023-01-10T07:36:14.643Z,100.00
2023-01-10T07:38:41.165Z,100.00
2023-01-10T07:41:07.921Z,100.00
2023-01-10T07:43:34.654Z,100.00
2023-01-10T07:46:03.089Z,100.00
2023-01-10T07:48:30.523Z,100.00
2023-01-10T07:50:58.623Z,100.00
2023-01-10T07:53:26.199Z,100.00
2023-01-10T07:55:52.745Z,100.00
2023-01-10T07:58:19.574Z,100.00
2023-01-10T08:00:46.293Z,100.00
2023-01-10T08:03:13.589Z,100.00
2023-01-10T08:05:40.756Z,100.00
2023-01-10T08:08:08.999Z,100.00
2023-01-10T08:10:36.720Z,100.00
2023-01-10T08:13:17.857Z,100.00
2023-01-10T08:15:47.206Z,100.00
2023-01-10T08:18:13.883Z,100.00
2023-01-10T08:20:40.883Z,100.00
2023-01-10T08:23:07.394Z,100.00
2023-01-10T08:25:33.963Z,100.00
2023-01-10T08:28:00.445Z,100.00
2023-01-10T08:30:26.945Z,100.00
2023-01-10T08:32:53.427Z,100.00
2023-01-10T08:35:20.433Z,100.00
2023-01-10T08:37:46.923Z,100.00
2023-01-10T08:40:13.595Z,100.00
2023-01-10T08:42:40.067Z,100.00
2023-01-10T08:45:07.236Z,100.00
2023-01-10T08:47:37.121Z,100.00
2023-01-10T08:50:07.162Z,100.00
2023-01-10T08:52:34.903Z,100.00
2023-01-10T08:55:01.361Z,99.87
2023-01-10T08:57:27.861Z,100.00
2023-01-10T08:59:54.309Z,100.00
2023-01-10T09:02:20.939Z,100.00
2023-01-10T09:04:47.479Z,100.00
2023-01-10T09:07:13.950Z,100.00
2023-01-10T09:09:40.378Z,100.00
2023-01-10T09:12:26.859Z,100.00
2023-01-10T09:14:53.433Z,100.00
2023-01-10T09:17:20.127Z,98.90
2023-01-10T09:19:46.653Z,97.61
2023-01-10T09:22:13.117Z,96.28
2023-01-10T09:24:39.579Z,97.40
2023-01-10T09:27:06.060Z,96.43
2023-01-10T09:29:32.543Z,97.08
2023-01-10T09:31:59.070Z,97.88
2023-01-10T09:34:25.595Z,99.04
2023-01-10T09:36:53.904Z,99.55
2023-01-10T09:39:21.493Z,100.00
2023-01-10T09:42:04.446Z,99.75
2023-01-10T09:44:46.839Z,98.66
2023-01-10T09:47:38.300Z,96.64
2023-01-10T09:50:20.012Z,96.24
2023-01-10T09:53:12.919Z,96.99
2023-01-10T09:55:40.528Z,98.36
2023-01-10T09:58:16.649Z,97.54
2023-01-10T10:00:43.041Z,97.52
2023-01-10T10:03:32.765Z,97.83
2023-01-10T10:06:11.139Z,97.40
2023-01-10T10:08:39.863Z,96.45
2023-01-10T10:11:25.193Z,96.78
2023-01-10T10:14:13.061Z,96.02
2023-01-10T10:17:01.866Z,96.45
2023-01-10T10:20:06.191Z,95.70
2023-01-10T10:22:46.206Z,94.72
2023-01-10T10:25:42.127Z,94.10
2023-01-10T10:28:31.848Z,93.63
2023-01-10T10:31:04.243Z,91.81
2023-01-10T10:33:54.459Z,92.05
2023-01-10T10:36:47.335Z,90.95
2023-01-10T10:39:19.247Z,91.16
2023-01-10T10:41:52.471Z,89.43
2023-01-10T10:44:37.081Z,89.53
2023-01-10T10:47:13.575Z,89.48
2023-01-10T10:50:05.049Z,89.01
2023-01-10T10:52:35.622Z,88.88
2023-01-10T10:55:04.569Z,87.03
2023-01-10T10:57:38.570Z,88.54
2023-01-10T11:00:07.449Z,88.67
2023-01-10T11:02:43.359Z,90.79
2023-01-10T11:05:18.102Z,90.80
2023-01-10T11:07:44.961Z,89.62
2023-01-10T11:10:36.710Z,91.62
2023-01-10T11:13:23.751Z,90.78
2023-01-10T11:15:50.780Z,90.98
2023-01-10T11:18:24.261Z,90.47
2023-01-10T11:21:04.669Z,91.33
2023-01-10T11:23:40.149Z,90.32
2023-01-10T11:26:21.863Z,90.26
2023-01-10T11:28:48.707Z,90.46
2023-01-10T11:31:15.207Z,90.58
2023-01-10T11:33:42.261Z,90.94
2023-01-10T11:36:12.949Z,90.12
2023-01-10T11:38:40.160Z,89.07
2023-01-10T11:41:24.927Z,88.48
2023-01-10T11:43:51.431Z,89.06
2023-01-10T11:46:25.729Z,88.87
2023-01-10T11:49:07.208Z,90.11
2023-01-10T11:51:59.714Z,90.33
2023-01-10T11:54:28.748Z,90.66
2023-01-10T11:57:02.669Z,91.26
2023-01-10T11:59:30.065Z,90.71
2023-01-10T12:02:00.758Z,88.41
2023-01-10T12:04:34.396Z,88.62
2023-01-10T12:07:04.992Z,87.04
2023-01-10T12:09:34.518Z,89.37
2023-01-10T12:12:23.596Z,87.24
2023-01-10T12:14:51.110Z,87.77
2023-01-10T12:17:27.513Z,87.38
2023-01-10T12:19:58.401Z,86.29
2023-01-10T12:22:33.472Z,86.93
2023-01-10T12:25:03.846Z,86.88
2023-01-10T12:27:31.035Z,86.00
2023-01-10T12:30:11.339Z,84.14
2023-01-10T12:32:46.230Z,81.58
2023-01-10T12:35:21.579Z,83.33
2023-01-10T12:38:02.856Z,84.68
2023-01-10T12:40:47.583Z,84.47
2023-01-10T12:43:58.971Z,85.08
2023-01-10T12:47:04.207Z,86.14
2023-01-10T12:49:54.907Z,87.59
2023-01-10T12:52:31.705Z,87.13
2023-01-10T12:54:58.582Z,87.94
2023-01-10T12:57:32.552Z,86.85
2023-01-10T13:00:02.688Z,86.98
2023-01-10T13:02:39.623Z,87.92
2023-01-10T13:05:12.963Z,86.55
2023-01-10T13:07:39.756Z,88.13
2023-01-10T13:10:07.235Z,86.52
2023-01-10T13:12:40.197Z,85.58
2023-01-10T13:15:31.595Z,84.28
2023-01-10T13:18:05.158Z,86.39
2023-01-10T13:20:40.425Z,84.36
2023-01-10T13:23:29.919Z,83.17
2023-01-10T13:26:05.069Z,85.20
2023-01-10T13:28:34.582Z,83.99
2023-01-10T13:31:04.449Z,83.69
2023-01-10T13:33:50.585Z,83.32
2023-01-10T13:36:21.518Z,83.52
2023-01-10T13:38:51.406Z,83.92
2023-01-10T13:41:36.795Z,84.25
2023-01-10T13:44:14.696Z,83.71
2023-01-10T13:46:51.629Z,82.55
2023-01-10T13:49:38.410Z,83.69
2023-01-10T13:52:32.902Z,83.36
2023-01-10T13:55:03.737Z,84.25
2023-01-10T13:57:53.411Z,83.75
2023-01-10T14:00:53.856Z,84.13
2023-01-10T14:03:41.432Z,84.69
2023-01-10T14:06:16.874Z,84.80
2023-01-10T14:08:53.207Z,83.05
2023-01-10T14:11:22.802Z,83.68
2023-01-10T14:13:58.823Z,83.93
2023-01-10T14:19:27.910Z,83.72
2023-01-10T14:21:57.957Z,83.58
2023-01-10T14:24:28.499Z,83.37
2023-01-10T14:26:58.667Z,82.10
2023-01-10T14:29:30.504Z,82.43
2023-01-10T14:31:59.477Z,82.74
2023-01-10T14:34:35.536Z,82.43
2023-01-10T14:37:08.666Z,82.01
2023-01-10T14:39:35.561Z,82.23
2023-01-10T14:42:07.114Z,83.02
2023-01-10T14:44:50.919Z,82.67
2023-01-10T14:47:28.233Z,82.56
2023-01-10T14:50:07.219Z,82.69
2023-01-10T14:52:34.087Z,83.03
2023-01-10T14:55:21.377Z,83.22
2023-01-10T14:57:59.740Z,82.88
2023-01-10T15:00:31.775Z,82.28
2023-01-10T15:03:03.170Z,83.35
2023-01-10T15:05:38.437Z,83.18
2023-01-10T15:08:24.377Z,82.07
2023-01-10T15:10:54.752Z,82.87
2023-01-10T15:13:25.008Z,82.45
2023-01-10T15:15:52.293Z,82.89
2023-01-10T15:18:38.320Z,82.07
2023-01-10T15:21:06.127Z,83.09
2023-01-10T15:23:37.323Z,83.94
2023-01-10T15:26:23.993Z,83.98
2023-01-10T15:29:10.776Z,82.79
2023-01-10T15:31:38.740Z,83.13
2023-01-10T15:34:11.017Z,83.49
2023-01-10T15:36:49.186Z,83.60
2023-01-10T15:39:31.344Z,84.35
2023-01-10T15:42:03.667Z,83.74
2023-01-10T15:44:45.174Z,84.70
2023-01-10T15:47:40.546Z,84.71
2023-01-10T15:50:35.378Z,85.52
2023-01-10T15:53:06.030Z,85.40
2023-01-10T15:55:55.064Z,85.65
2023-01-10T15:58:30.579Z,85.19
2023-01-10T16:00:59.783Z,85.91
2023-01-10T16:03:45.511Z,86.51
2023-01-10T16:06:22.590Z,86.94
2023-01-10T16:08:51.134Z,85.73
2023-01-10T16:11:42.368Z,86.02
2023-01-10T16:14:09.295Z,85.46
2023-01-10T16:16:35.958Z,87.08
2023-01-10T16:19:03.065Z,87.02
2023-01-10T16:21:35.998Z,86.36
2023-01-10T16:24:04.052Z,86.53
2023-01-10T16:26:30.919Z,88.12
2023-01-10T16:29:00.327Z,88.47
2023-01-10T16:31:26.881Z,87.88
2023-01-10T16:33:53.453Z,86.12
2023-01-10T16:36:21.037Z,87.63
2023-01-10T16:38:47.747Z,87.61
2023-01-10T16:41:33.600Z,87.19
2023-01-10T16:44:00.687Z,86.83
2023-01-10T16:46:27.482Z,88.00
2023-01-10T16:48:54.900Z,87.80
2023-01-10T16:51:24.877Z,87.02
2023-01-10T16:53:51.713Z,87.49
2023-01-10T16:56:21.092Z,88.69
2023-01-10T16:58:48.532Z,87.36
2023-01-10T17:01:18.272Z,88.19
2023-01-10T17:03:45.636Z,88.22
2023-01-10T17:06:14.258Z,88.03
2023-01-10T17:08:41.073Z,88.65
2023-01-10T17:11:12.952Z,89.62
2023-01-10T17:13:42.746Z,89.57
2023-01-10T17:16:10.560Z,87.33
2023-01-10T17:18:39.427Z,90.16
2023-01-10T17:21:06.450Z,90.43
2023-01-10T17:23:33.219Z,89.51
2023-01-10T17:26:04.758Z,89.53
2023-01-10T17:28:31.684Z,90.86
2023-01-10T17:30:59.313Z,89.15
2023-01-10T17:33:27.156Z,88.64
2023-01-10T17:35:55.523Z,90.75
2023-01-10T17:38:24.107Z,89.60
2023-01-10T17:40:51.066Z,89.74
2023-01-10T17:43:19.281Z,89.27
2023-01-10T17:45:49.290Z,90.13
2023-01-10T17:48:17.367Z,90.74
2023-01-10T17:50:46.041Z,89.37
2023-01-10T17:53:12.723Z,90.20
2023-01-10T17:55:47.005Z,89.80
2023-01-10T17:58:17.966Z,89.21
2023-01-10T18:00:45.928Z,89.25
2023-01-10T18:03:12.730Z,89.88
2023-01-10T18:05:39.925Z,87.46
2023-01-10T18:08:07.131Z,90.09
2023-01-10T18:10:34.164Z,90.75
2023-01-10T18:13:03.236Z,90.98
2023-01-10T18:15:29.961Z,89.50
2023-01-10T18:17:56.432Z,89.18
2023-01-10T18:20:22.910Z,90.15
2023-01-10T18:23:08.061Z,91.22
2023-01-10T18:25:34.504Z,90.83
2023-01-10T18:28:00.991Z,90.85
2023-01-10T18:30:27.496Z,90.08
2023-01-10T18:32:54.723Z,89.90
2023-01-10T18:35:22.459Z,90.06
2023-01-10T18:37:51.944Z,90.02
2023-01-10T18:40:18.494Z,91.01
2023-01-10T18:42:45.797Z,91.03
2023-01-10T18:45:12.292Z,89.84
2023-01-10T18:47:38.741Z,90.93
2023-01-10T18:50:05.603Z,90.16
2023-01-10T18:52:32.047Z,90.22
2023-01-10T18:54:59.826Z,89.36
2023-01-10T18:57:28.481Z,90.03
2023-01-10T18:59:54.994Z,90.64
2023-01-10T19:02:21.549Z,89.83
2023-01-10T19:04:48.058Z,91.73
2023-01-10T19:07:14.535Z,91.07
2023-01-10T19:09:40.975Z,91.64
2023-01-10T19:12:07.567Z,92.98
2023-01-10T19:14:34.276Z,94.12
2023-01-10T19:17:00.833Z,93.91
2023-01-10T19:19:27.278Z,95.17
2023-01-10T19:21:53.748Z,95.35
2023-01-10T19:24:24.372Z,97.01
2023-01-10T19:26:52.013Z,97.90
2023-01-10T19:29:18.641Z,98.47
2023-01-10T19:31:45.212Z,99.38
2023-01-10T19:34:12.531Z,100.00
2023-01-10T19:36:41.396Z,100.00
2023-01-10T19:39:09.522Z,100.00
2023-01-10T19:41:36.986Z,100.00
2023-01-10T19:44:07.573Z,100.00
2023-01-10T19:46:36.884Z,100.00
2023-01-10T19:49:07.836Z,100.00
2023-01-10T19:51:36.647Z,100.00
2023-01-10T19:54:04.173Z,100.00
2023-01-10T19:56:31.357Z,100.00
2023-01-10T19:58:58.095Z,100.00
2023-01-10T20:01:27.533Z,100.00
2023-01-10T20:03:56.747Z,100.00
2023-01-10T20:06:26.702Z,100.00
2023-01-10T20:08:54.262Z,100.00
2023-01-10T20:11:22.579Z,100.00
2023-01-10T20:13:49.534Z,100.00
2023-01-10T20:16:21.250Z,100.00
2023-01-10T20:18:48.923Z,100.00
2023-01-10T20:21:17.959Z,100.00
2023-01-10T20:23:45.262Z,100.00
2023-01-10T20:26:20.776Z,100.00
2023-01-10T20:28:48.114Z,100.00
2023-01-10T20:31:17.366Z,100.00
2023-01-10T20:33:43.993Z,100.00
2023-01-10T20:36:12.934Z,100.00
2023-01-10T20:38:39.746Z,100.00
2023-01-10T20:41:12.384Z,100.00
2023-01-10T20:43:39.796Z,100.00
2023-01-10T20:46:07.111Z,100.00
2023-01-10T20:48:34.468Z,100.00
2023-01-10T20:51:01.223Z,100.00
2023-01-10T20:53:27.743Z,100.00
2023-01-10T20:56:00.010Z,100.00
2023-01-10T20:58:27.091Z,100.00
2023-01-10T21:00:54.283Z,100.00
2023-01-10T21:03:20.767Z,100.00
2023-01-10T21:05:54.273Z,100.00
2023-01-10T21:08:22.386Z,100.00
2023-01-10T21:10:50.619Z,100.00
2023-01-10T21:13:17.430Z,100.00
2023-01-10T21:15:45.898Z,100.00
2023-01-10T21:18:14.513Z,100.00
2023-01-10T21:20:42.403Z,100.00
2023-01-10T21:23:09.351Z,100.00
2023-01-10T21:25:35.894Z,100.00
2023-01-10T21:28:02.483Z,100.00
2023-01-10T21:30:28.934Z,100.00
2023-01-10T21:32:59.678Z,100.00
2023-01-10T21:35:26.143Z,100.00
2023-01-10T21:37:52.593Z,100.00
2023-01-10T21:40:20.122Z,100.00
2023-01-10T21:42:47.264Z,100.00
2023-01-10T21:45:14.286Z,100.00
2023-01-10T21:47:40.976Z,100.00
2023-01-10T21:50:10.633Z,100.00
2023-01-10T21:52:37.228Z,100.00
2023-01-10T21:55:04.582Z,100.00
2023-01-10T21:57:31.085Z,100.00
2023-01-10T21:59:57.560Z,100.00
2023-01-10T22:02:25.144Z,100.00
2023-01-10T22:04:53.985Z,100.00
2023-01-10T22:07:22.371Z,100.00
2023-01-10T22:09:51.954Z,100.00
2023-01-10T22:12:20.199Z,100.00
2023-01-10T22:14:47.235Z,100.00
2023-01-10T22:17:14.203Z,100.00
2023-01-10T22:19:41.082Z,100.00
2023-01-10T22:22:08.559Z,100.00
2023-01-10T22:24:35.432Z,100.00
2023-01-10T22:27:02.519Z,100.00
2023-01-10T22:29:29.042Z,100.00
2023-01-10T22:31:55.792Z,100.00
2023-01-10T22:34:22.447Z,100.00
2023-01-10T22:36:48.945Z,100.00
2023-01-10T22:39:15.441Z,100.00
2023-01-10T22:41:41.935Z,100.00
2023-01-10T22:44:17.729Z,100.00
2023-01-10T22:46:44.282Z,100.00
2023-01-10T22:49:10.862Z,100.00
2023-01-10T22:51:37.587Z,100.00
2023-01-10T22:54:04.618Z,100.00
2023-01-10T22:56:31.423Z,100.00
2023-01-10T22:58:57.866Z,100.00
2023-01-10T23:01:25.562Z,100.00
2023-01-10T23:03:52.195Z,100.00
2023-01-10T23:06:18.867Z,100.00
2023-01-10T23:08:45.462Z,100.00
2023-01-10T23:11:15.635Z,100.00
2023-01-10T23:13:42.179Z,100.00
2023-01-10T23:16:13.531Z,100.00
2023-01-10T23:18:40.451Z,100.00
2023-01-10T23:21:07.584Z,100.00
2023-01-10T23:23:34.089Z,100.00
2023-01-10T23:26:02.322Z,100.00
2023-01-10T23:28:33.493Z,100.00
2023-01-10T23:31:00.052Z,100.00
2023-01-10T23:33:26.651Z,100.00
2023-01-10T23:35:53.146Z,100.00
2023-01-10T23:38:19.628Z,100.00
2023-01-10T23:40:46.135Z,100.00
2023-01-10T23:43:12.613Z,100.00
2023-01-10T23:45:39.128Z,100.00
2023-01-10T23:48:06.081Z,100.00
2023-01-10T23:50:32.649Z,100.00
2023-01-10T23:52:59.113Z,100.00
2023-01-10T23:55:25.586Z,100.00
2023-01-10T23:57:52.040Z,100.00
